ROMMA est une association bénévole à but non lucratif. Votre soutien est indispensable : ADHERER à ROMMA ou FAIRE un DON

Crempigny-Bonneguête - (74, Haute-Savoie)

Albanais-Montagne des Princes (500 m)   Longitude: 05° 54' 5" E   Latitude: 45° 57' 0" N Station partenaire n°10
 

Détail journalier du     <<     >>

Température Precipitation Humidité Pression Vent Dir Rafale Dir. rafale Ensol. 20 cm au dessus du sol
Heure (°C) (mm) (%) (hPa) (km/h) (km/h) (min) (°C)
01:00 6.608410112NNO5NNO04.4
02:00 6.208510112NNO5NNO04.4
03:00 5.608510112NNO5NNO03.9
04:00 5.108710113NNO5NNO03.3
05:00 4.808910111NNO5NNO02.8
06:00 3.809110102NNO5NNO02.2
07:00 3.709210112NNO3NNO02.2
08:00 3.309410111NNO3NNO02.8
09:00 5.609310111NNO3NNO253.3
10:00 6.508910113SSO6SSO507.8
11:00 9.508210102SSO6SSO6012.8
12:00 12.606910106ENE18NE6015.0
13:00 14.506510096ENE18NE6016.7
14:00 15.505410098ENE23E6017.2
15:00 16.104710088ENE21ENE6018.3
16:00 15.105110077NO21NO4516.7
17:00 15.205410078ONO21ONO1516.1
18:00 14.505910079NNE19NNO3014.4
19:00 12.9062100717NO29ONO2012.8
20:00 11.5068100718ONO29O010.6
21:00 10.8068100818ONO27ONO010.0
22:00 10.3068100816NO24ONO09.4
23:00 10.1068100812ONO23ONO08.9
minuit 10.1068100810NO19NO08.9

Graphique du 09-04-2019

 

Serveur OMMA